createdAt,value
2023-03-16T00:01:05.709Z,43.93
2023-03-16T00:03:33.641Z,43.97
2023-03-16T00:06:01.539Z,44.07
2023-03-16T00:08:30.841Z,43.80
2023-03-16T00:10:58.739Z,43.87
2023-03-16T00:13:27.404Z,44.00
2023-03-16T00:15:57.054Z,43.93
2023-03-16T00:18:27.160Z,43.90
2023-03-16T00:20:56.728Z,43.90
2023-03-16T00:23:27.119Z,43.93
2023-03-16T00:25:56.949Z,43.80
2023-03-16T00:28:24.850Z,43.60
2023-03-16T00:30:52.953Z,43.97
2023-03-16T00:33:20.801Z,43.90
2023-03-16T00:35:50.103Z,43.80
2023-03-16T00:38:18.519Z,43.87
2023-03-16T00:40:47.020Z,43.60
2023-03-16T00:43:18.645Z,43.70
2023-03-16T00:45:46.705Z,43.87
2023-03-16T00:48:14.551Z,43.87
2023-03-16T00:50:43.132Z,43.57
2023-03-16T00:53:10.919Z,43.70
2023-03-16T00:55:38.711Z,43.77
2023-03-16T00:58:06.735Z,43.70
2023-03-16T01:00:36.123Z,43.80
2023-03-16T01:03:04.119Z,43.87
2023-03-16T01:05:33.389Z,43.70
2023-03-16T01:08:02.624Z,43.90
2023-03-16T01:10:30.610Z,43.80
2023-03-16T01:12:58.446Z,43.97
2023-03-16T01:15:26.335Z,43.80
2023-03-16T01:17:55.490Z,43.33
2023-03-16T01:20:23.764Z,43.60
2023-03-16T01:22:52.080Z,43.80
2023-03-16T01:25:21.125Z,43.43
2023-03-16T01:27:49.032Z,43.43
2023-03-16T01:30:17.008Z,43.67
2023-03-16T01:32:45.112Z,43.57
2023-03-16T01:35:16.072Z,43.67
2023-03-16T01:37:43.988Z,43.80
2023-03-16T01:40:17.519Z,43.67
2023-03-16T01:42:50.152Z,43.70
2023-03-16T01:46:10.533Z,43.60
2023-03-16T01:48:47.981Z,43.57
2023-03-16T01:51:24.751Z,43.27
2023-03-16T01:53:57.199Z,43.60
2023-03-16T01:56:28.518Z,43.37
2023-03-16T01:59:01.500Z,43.70
2023-03-16T02:01:29.888Z,43.70
2023-03-16T02:04:08.598Z,43.27
2023-03-16T02:06:39.359Z,43.70
2023-03-16T02:09:08.499Z,43.70
2023-03-16T02:11:37.339Z,43.33
2023-03-16T02:14:14.049Z,43.57
2023-03-16T02:16:43.539Z,43.60
2023-03-16T02:19:17.727Z,43.70
2023-03-16T02:21:55.436Z,43.53
2023-03-16T02:24:23.671Z,43.70
2023-03-16T02:26:55.876Z,43.63
2023-03-16T02:29:54.103Z,43.40
2023-03-16T02:32:24.153Z,43.30
2023-03-16T02:34:51.955Z,43.43
2023-03-16T02:37:20.056Z,43.50
2023-03-16T02:39:47.882Z,43.50
2023-03-16T02:42:22.748Z,43.43
2023-03-16T02:44:56.678Z,43.60
2023-03-16T02:47:36.736Z,43.63
2023-03-16T02:50:06.674Z,43.47
2023-03-16T02:52:35.365Z,43.70
2023-03-16T02:55:03.746Z,43.67
2023-03-16T02:57:32.367Z,43.43
2023-03-16T03:00:11.509Z,43.50
2023-03-16T03:02:40.153Z,43.50
2023-03-16T03:05:08.692Z,43.70
2023-03-16T03:07:37.261Z,43.50
2023-03-16T03:10:07.961Z,43.40
2023-03-16T03:12:36.288Z,43.30
2023-03-16T03:15:10.501Z,43.53
2023-03-16T03:17:54.229Z,43.70
2023-03-16T03:20:22.369Z,43.50
2023-03-16T03:22:52.467Z,43.37
2023-03-16T03:25:22.191Z,43.30
2023-03-16T03:27:54.314Z,43.43
2023-03-16T03:30:26.070Z,43.40
2023-03-16T03:32:54.086Z,43.20
2023-03-16T03:35:22.898Z,43.60
2023-03-16T03:37:51.530Z,43.40
2023-03-16T03:40:20.894Z,43.30
2023-03-16T03:42:58.094Z,43.60
2023-03-16T03:45:28.225Z,43.60
2023-03-16T03:47:56.440Z,43.50
2023-03-16T03:50:25.533Z,43.57
2023-03-16T03:53:05.943Z,43.50
2023-03-16T03:55:41.088Z,43.50
2023-03-16T03:58:08.926Z,43.47
2023-03-16T04:00:38.119Z,43.47
2023-03-16T04:03:06.447Z,43.30
2023-03-16T04:05:42.081Z,43.60
2023-03-16T04:08:09.958Z,43.63
2023-03-16T04:10:38.263Z,43.50
2023-03-16T04:13:06.222Z,43.70
2023-03-16T04:15:38.287Z,43.60
2023-03-16T04:18:14.678Z,43.50
2023-03-16T04:20:44.323Z,43.30
2023-03-16T04:23:16.979Z,43.53
2023-03-16T04:25:47.970Z,43.67
2023-03-16T04:28:18.562Z,43.40
2023-03-16T04:30:50.772Z,43.50
2023-03-16T04:33:25.957Z,43.67
2023-03-16T04:35:53.959Z,43.70
2023-03-16T04:38:23.606Z,43.80
2023-03-16T04:40:55.717Z,43.70
2023-03-16T04:43:27.451Z,43.63
2023-03-16T04:45:59.525Z,43.60
2023-03-16T04:48:33.247Z,43.80
2023-03-16T04:51:04.204Z,43.77
2023-03-16T04:53:34.714Z,43.57
2023-03-16T04:56:17.938Z,43.60
2023-03-16T04:58:46.120Z,43.90
2023-03-16T05:01:14.385Z,43.40
2023-03-16T05:03:44.493Z,43.63
2023-03-16T05:06:13.759Z,43.60
2023-03-16T05:08:42.679Z,43.40
2023-03-16T05:11:11.047Z,43.40
2023-03-16T05:13:48.679Z,43.70
2023-03-16T05:16:16.644Z,43.60
2023-03-16T05:18:45.956Z,43.70
2023-03-16T05:21:13.846Z,43.67
2023-03-16T05:23:51.917Z,43.53
2023-03-16T05:26:19.898Z,43.70
2023-03-16T05:28:48.303Z,43.50
2023-03-16T05:31:18.942Z,43.57
2023-03-16T05:33:53.839Z,44.10
2023-03-16T05:36:22.612Z,43.90
2023-03-16T05:38:53.850Z,44.47
2023-03-16T05:41:31.118Z,45.00
2023-03-16T05:44:04.287Z,45.70
2023-03-16T05:46:46.169Z,45.83
2023-03-16T05:49:15.954Z,46.37
2023-03-16T05:51:43.836Z,46.60
2023-03-16T05:54:11.816Z,46.80
2023-03-16T05:56:45.523Z,46.90
2023-03-16T05:59:13.490Z,46.97
2023-03-16T06:01:42.061Z,47.07
2023-03-16T06:04:10.081Z,47.40
2023-03-16T06:06:43.537Z,47.40
2023-03-16T06:09:18.352Z,47.30
2023-03-16T06:11:46.203Z,47.30
2023-03-16T06:14:16.569Z,47.10
2023-03-16T06:16:45.115Z,47.03
2023-03-16T06:19:13.793Z,47.67
2023-03-16T06:21:43.874Z,47.60
2023-03-16T06:24:14.306Z,47.17
2023-03-16T06:26:42.124Z,47.13
2023-03-16T06:29:13.203Z,47.60
2023-03-16T06:31:42.293Z,47.97
2023-03-16T06:34:11.520Z,47.70
2023-03-16T06:36:39.949Z,47.63
2023-03-16T06:39:14.281Z,47.80
2023-03-16T06:41:46.428Z,47.80
2023-03-16T06:44:16.658Z,47.70
2023-03-16T06:47:07.484Z,47.47
2023-03-16T06:49:35.472Z,46.93
2023-03-16T06:52:07.244Z,48.10
2023-03-16T06:54:37.571Z,47.50
2023-03-16T06:57:05.842Z,48.13
2023-03-16T06:59:34.395Z,48.20
2023-03-16T07:02:02.853Z,47.73
2023-03-16T07:04:31.468Z,47.93
2023-03-16T07:06:59.359Z,47.90
2023-03-16T07:09:28.538Z,48.00
2023-03-16T07:11:57.764Z,48.03
2023-03-16T07:14:26.215Z,48.17
2023-03-16T07:16:56.363Z,48.17
2023-03-16T07:19:25.467Z,48.07
2023-03-16T07:21:55.709Z,48.40
2023-03-16T07:24:24.574Z,48.17
2023-03-16T07:26:52.986Z,48.43
2023-03-16T07:29:32.639Z,48.27
2023-03-16T07:32:00.710Z,48.23
2023-03-16T07:34:36.208Z,48.37
2023-03-16T07:37:04.053Z,48.37
2023-03-16T07:39:33.573Z,48.53
2023-03-16T07:42:08.307Z,48.47
2023-03-16T07:45:11.042Z,48.67
2023-03-16T07:47:38.940Z,48.50
2023-03-16T07:50:16.636Z,48.27
2023-03-16T07:52:46.099Z,48.20
2023-03-16T07:55:14.170Z,48.67
2023-03-16T07:57:47.625Z,48.80
2023-03-16T08:00:23.728Z,48.23
2023-03-16T08:02:51.828Z,48.63
2023-03-16T08:05:19.777Z,48.57
2023-03-16T08:07:52.064Z,48.77
2023-03-16T08:10:23.927Z,48.93
2023-03-16T08:12:59.179Z,48.33
2023-03-16T08:15:28.809Z,48.93
2023-03-16T08:18:05.495Z,49.00
2023-03-16T08:20:33.442Z,48.83
2023-03-16T08:23:01.450Z,48.90
2023-03-16T08:25:36.096Z,48.67
2023-03-16T08:28:09.303Z,48.43
2023-03-16T08:30:38.734Z,48.63
2023-03-16T08:33:29.496Z,48.67
2023-03-16T08:35:57.566Z,48.97
2023-03-16T08:38:25.964Z,48.63
2023-03-16T08:40:54.434Z,48.27
2023-03-16T08:43:23.851Z,48.70
2023-03-16T08:45:54.405Z,48.63
2023-03-16T08:48:26.396Z,48.77
2023-03-16T08:50:55.172Z,48.83
2023-03-16T08:53:22.991Z,49.27
2023-03-16T08:55:51.781Z,49.00
2023-03-16T08:58:19.788Z,48.90
2023-03-16T09:00:50.200Z,49.13
2023-03-16T09:03:20.385Z,49.00
2023-03-16T09:05:49.375Z,48.97
2023-03-16T09:08:18.333Z,49.13
2023-03-16T09:10:46.827Z,49.23
2023-03-16T09:13:14.645Z,48.97
2023-03-16T09:15:42.808Z,49.10
2023-03-16T09:18:11.511Z,49.13
2023-03-16T09:20:40.934Z,49.10
2023-03-16T09:23:08.895Z,49.23
2023-03-16T09:25:36.684Z,49.43
2023-03-16T09:28:04.747Z,49.47
2023-03-16T09:30:32.809Z,49.27
2023-03-16T09:33:00.909Z,49.43
2023-03-16T09:35:28.989Z,49.03
2023-03-16T09:38:06.744Z,49.53
2023-03-16T09:40:36.411Z,49.20
2023-03-16T09:43:28.078Z,49.40
2023-03-16T09:46:04.002Z,49.20
2023-03-16T09:48:35.483Z,49.30
2023-03-16T09:51:06.550Z,48.73
2023-03-16T09:53:39.422Z,49.13
2023-03-16T09:56:11.657Z,48.90
2023-03-16T09:58:39.521Z,49.40
2023-03-16T10:01:15.791Z,49.37
2023-03-16T10:04:01.729Z,49.20
2023-03-16T10:06:31.101Z,48.97
2023-03-16T10:09:08.015Z,49.00
2023-03-16T10:11:39.255Z,49.33
2023-03-16T10:14:17.581Z,49.57
2023-03-16T10:16:50.324Z,49.27
2023-03-16T10:19:23.186Z,49.17
2023-03-16T10:21:55.334Z,49.53
2023-03-16T10:24:39.265Z,49.20
2023-03-16T10:27:14.258Z,49.43
2023-03-16T10:29:42.127Z,49.30
2023-03-16T10:32:16.447Z,49.47
2023-03-16T10:34:49.569Z,49.40
2023-03-16T10:37:17.412Z,49.13
2023-03-16T10:39:49.032Z,49.50
2023-03-16T10:42:18.600Z,48.93
2023-03-16T10:44:46.725Z,49.57
2023-03-16T10:47:21.069Z,49.47
2023-03-16T10:49:51.156Z,49.50
2023-03-16T10:52:24.697Z,49.47
2023-03-16T10:54:58.138Z,49.23
2023-03-16T10:57:27.832Z,49.37
2023-03-16T11:00:00.718Z,49.97
2023-03-16T11:02:34.062Z,49.90
2023-03-16T11:05:13.874Z,49.80
2023-03-16T11:07:49.759Z,49.87
2023-03-16T11:10:30.118Z,49.30
2023-03-16T11:13:03.915Z,49.47
2023-03-16T11:15:39.644Z,49.70
2023-03-16T11:18:10.603Z,49.63
2023-03-16T11:20:38.968Z,49.67
2023-03-16T11:23:18.165Z,49.97
2023-03-16T11:25:53.425Z,50.20
2023-03-16T11:28:28.765Z,49.87
2023-03-16T11:31:07.017Z,50.00
2023-03-16T11:33:35.733Z,49.43
2023-03-16T11:36:18.160Z,50.07
2023-03-16T11:38:53.086Z,50.07
2023-03-16T11:41:29.699Z,50.07
2023-03-16T11:44:01.697Z,50.13
2023-03-16T11:46:32.483Z,49.97
2023-03-16T11:49:24.447Z,49.93
2023-03-16T11:52:01.528Z,50.00
2023-03-16T11:54:45.033Z,49.63
2023-03-16T11:57:31.319Z,49.97
2023-03-16T12:00:18.163Z,49.70
2023-03-16T12:02:58.663Z,49.60
2023-03-16T12:05:43.024Z,50.23
2023-03-16T12:08:39.124Z,50.23
2023-03-16T12:11:12.943Z,49.77
2023-03-16T12:13:55.773Z,50.17
2023-03-16T12:16:33.087Z,50.03
2023-03-16T12:19:12.731Z,49.60
2023-03-16T12:21:44.447Z,49.97
2023-03-16T12:24:17.061Z,49.87
2023-03-16T12:26:45.292Z,49.73
2023-03-16T12:29:26.375Z,50.00
2023-03-16T12:31:59.466Z,50.23
2023-03-16T12:34:33.411Z,49.93
2023-03-16T12:37:23.673Z,50.03
2023-03-16T12:40:23.502Z,49.83
2023-03-16T12:43:05.937Z,50.23
2023-03-16T12:45:41.813Z,50.53
2023-03-16T12:48:18.626Z,50.37
2023-03-16T12:50:51.850Z,50.57
2023-03-16T12:53:39.630Z,50.10
2023-03-16T12:56:11.994Z,50.30
2023-03-16T12:58:46.880Z,50.47
2023-03-16T13:01:19.740Z,50.23
2023-03-16T13:03:50.443Z,50.23
2023-03-16T13:06:21.467Z,50.70
2023-03-16T13:08:53.652Z,50.03
2023-03-16T13:11:21.503Z,50.40
2023-03-16T13:13:52.041Z,50.33
2023-03-16T13:16:29.371Z,50.17
2023-03-16T13:18:58.109Z,50.50
2023-03-16T13:21:37.631Z,50.43
2023-03-16T13:24:26.360Z,50.47
2023-03-16T13:26:58.728Z,50.03
2023-03-16T13:29:29.104Z,50.10
2023-03-16T13:32:00.687Z,50.00
2023-03-16T13:34:31.798Z,50.03
2023-03-16T13:37:01.472Z,49.93
2023-03-16T13:39:31.027Z,50.37
2023-03-16T13:42:01.535Z,50.30
2023-03-16T13:44:30.414Z,50.03
2023-03-16T13:47:04.375Z,50.00
2023-03-16T13:49:32.372Z,50.63
2023-03-16T13:52:00.246Z,50.17
2023-03-16T13:54:30.668Z,50.37
2023-03-16T13:57:01.252Z,50.27
2023-03-16T13:59:29.679Z,50.60
2023-03-16T14:02:00.043Z,50.60
2023-03-16T14:04:30.643Z,50.33
2023-03-16T14:07:00.262Z,50.50
2023-03-16T14:09:30.569Z,50.70
2023-03-16T14:11:59.018Z,50.47
2023-03-16T14:14:29.968Z,50.57
2023-03-16T14:17:13.512Z,50.57
2023-03-16T14:19:45.681Z,50.63
2023-03-16T14:22:18.727Z,50.53
2023-03-16T14:24:53.639Z,50.43
2023-03-16T14:27:26.581Z,50.27
2023-03-16T14:30:01.630Z,50.20
2023-03-16T14:32:33.303Z,49.93
2023-03-16T14:35:10.862Z,50.13
2023-03-16T14:37:40.416Z,50.17
2023-03-16T14:40:21.591Z,50.17
2023-03-16T14:42:49.536Z,50.00
2023-03-16T14:45:18.479Z,49.93
2023-03-16T14:47:49.808Z,50.00
2023-03-16T14:50:23.684Z,50.13
2023-03-16T14:52:52.659Z,50.03
2023-03-16T14:55:22.753Z,49.87
2023-03-16T14:57:51.363Z,49.73
2023-03-16T15:00:21.506Z,50.13
2023-03-16T15:02:59.011Z,50.20
2023-03-16T15:05:36.577Z,50.20
2023-03-16T15:08:06.512Z,49.90
2023-03-16T15:10:37.164Z,49.70
2023-03-16T15:13:16.843Z,49.67
2023-03-16T15:15:46.977Z,48.83
2023-03-16T15:18:16.581Z,49.03
2023-03-16T15:20:49.515Z,48.20
2023-03-16T15:23:17.994Z,48.57
2023-03-16T15:25:47.277Z,47.97
2023-03-16T15:28:17.251Z,48.07
2023-03-16T15:30:46.071Z,48.03
2023-03-16T15:33:15.744Z,47.70
2023-03-16T15:35:44.554Z,47.80
2023-03-16T15:38:16.647Z,47.67
2023-03-16T15:40:47.609Z,47.80
2023-03-16T15:43:17.796Z,47.77
2023-03-16T15:45:47.079Z,47.73
2023-03-16T15:48:16.980Z,47.30
2023-03-16T15:50:51.046Z,47.53
2023-03-16T15:53:30.876Z,47.93
2023-03-16T15:56:02.989Z,47.43
2023-03-16T15:58:33.816Z,47.97
2023-03-16T16:01:03.518Z,47.60
2023-03-16T16:03:33.612Z,47.80
2023-03-16T16:06:01.837Z,47.93
2023-03-16T16:08:29.880Z,47.60
2023-03-16T16:10:57.898Z,47.47
2023-03-16T16:13:43.101Z,47.70
2023-03-16T16:16:14.327Z,47.50
2023-03-16T16:18:43.914Z,47.37
2023-03-16T16:21:18.014Z,47.50
2023-03-16T16:23:46.392Z,47.10
2023-03-16T16:26:24.279Z,47.53
2023-03-16T16:28:54.291Z,47.53
2023-03-16T16:31:24.056Z,47.37
2023-03-16T16:33:53.794Z,47.53
2023-03-16T16:36:21.977Z,47.53
2023-03-16T16:38:50.867Z,47.63
2023-03-16T16:41:25.938Z,47.53
2023-03-16T16:43:54.546Z,47.43
2023-03-16T16:46:24.464Z,47.60
2023-03-16T16:48:56.863Z,47.40
2023-03-16T16:51:26.880Z,47.17
2023-03-16T16:53:56.121Z,47.47
2023-03-16T16:56:28.723Z,47.33
2023-03-16T16:58:57.604Z,47.37
2023-03-16T17:01:28.926Z,47.30
2023-03-16T17:03:58.254Z,47.07
2023-03-16T17:06:27.942Z,47.20
2023-03-16T17:08:56.092Z,47.03
2023-03-16T17:11:26.967Z,47.10
2023-03-16T17:13:56.864Z,47.23
2023-03-16T17:16:26.484Z,47.17
2023-03-16T17:18:55.324Z,47.00
2023-03-16T17:21:26.871Z,47.00
2023-03-16T17:23:55.210Z,46.57
2023-03-16T17:26:25.611Z,46.60
2023-03-16T17:28:57.504Z,46.70
2023-03-16T17:31:27.638Z,46.47
2023-03-16T17:33:56.897Z,46.73
2023-03-16T17:36:26.261Z,46.80
2023-03-16T17:38:54.592Z,46.90
2023-03-16T17:41:24.860Z,46.60
2023-03-16T17:43:55.075Z,46.80
2023-03-16T17:46:25.028Z,46.53
2023-03-16T17:48:54.416Z,46.83
2023-03-16T17:51:25.360Z,46.90
2023-03-16T17:53:55.689Z,46.67
2023-03-16T17:56:26.277Z,46.67
2023-03-16T17:58:57.280Z,46.53
2023-03-16T18:01:29.140Z,46.60
2023-03-16T18:03:57.886Z,46.50
2023-03-16T18:06:29.047Z,46.63
2023-03-16T18:08:58.574Z,46.57
2023-03-16T18:11:32.116Z,46.43
2023-03-16T18:13:59.926Z,46.80
2023-03-16T18:16:28.519Z,46.67
2023-03-16T18:19:00.555Z,46.70
2023-03-16T18:21:28.676Z,46.67
2023-03-16T18:23:57.916Z,46.67
2023-03-16T18:26:27.417Z,46.70
2023-03-16T18:28:55.401Z,46.50
2023-03-16T18:31:26.087Z,46.80
2023-03-16T18:33:56.247Z,46.40
2023-03-16T18:36:30.260Z,46.57
2023-03-16T18:39:01.578Z,46.57
2023-03-16T18:41:33.429Z,46.47
2023-03-16T18:44:03.755Z,46.53
2023-03-16T18:46:33.671Z,46.63
2023-03-16T18:49:03.791Z,46.40
2023-03-16T18:51:32.217Z,46.77
2023-03-16T18:54:01.395Z,46.57
2023-03-16T18:56:30.074Z,46.47
2023-03-16T18:58:58.393Z,46.40
2023-03-16T19:01:28.421Z,46.77
2023-03-16T19:03:58.002Z,46.57
2023-03-16T19:06:30.311Z,46.90
2023-03-16T19:09:04.001Z,46.50
2023-03-16T19:11:32.112Z,46.57
2023-03-16T19:13:59.991Z,46.37
2023-03-16T19:16:27.870Z,46.53
2023-03-16T19:18:55.797Z,46.70
2023-03-16T19:21:23.787Z,46.20
2023-03-16T19:23:56.623Z,46.47
2023-03-16T19:26:26.418Z,46.53
2023-03-16T19:28:54.614Z,46.37
2023-03-16T19:31:26.340Z,46.37
2023-03-16T19:33:55.228Z,46.20
2023-03-16T19:36:25.052Z,46.40
2023-03-16T19:38:53.304Z,46.57
2023-03-16T19:41:26.840Z,46.50
2023-03-16T19:43:57.614Z,46.40
2023-03-16T19:46:27.027Z,46.33
2023-03-16T19:48:55.279Z,46.40
2023-03-16T19:51:25.237Z,46.33
2023-03-16T19:53:53.261Z,46.40
2023-03-16T19:56:24.413Z,46.50
2023-03-16T19:58:55.995Z,46.30
2023-03-16T20:01:30.426Z,46.50
2023-03-16T20:04:00.165Z,46.27
2023-03-16T20:06:28.248Z,46.27
2023-03-16T20:08:56.106Z,45.97
2023-03-16T20:11:28.239Z,46.33
2023-03-16T20:13:59.596Z,46.23
2023-03-16T20:16:30.573Z,46.60
2023-03-16T20:19:00.616Z,46.00
2023-03-16T20:21:29.310Z,46.17
2023-03-16T20:23:57.226Z,46.20
2023-03-16T20:26:28.949Z,45.83
2023-03-16T20:28:58.286Z,46.40
2023-03-16T20:31:29.527Z,46.27
2023-03-16T20:33:58.253Z,46.30
2023-03-16T20:36:26.969Z,46.23
2023-03-16T20:38:54.818Z,46.13
2023-03-16T20:41:26.632Z,46.23
2023-03-16T20:43:55.764Z,46.17
2023-03-16T20:46:27.728Z,46.43
2023-03-16T20:48:55.881Z,46.13
2023-03-16T20:51:24.533Z,46.27
2023-03-16T20:53:52.389Z,46.13
2023-03-16T20:56:22.951Z,46.27
2023-03-16T20:58:54.547Z,46.23
2023-03-16T21:01:25.214Z,45.97
2023-03-16T21:03:55.517Z,46.23
2023-03-16T21:06:25.601Z,46.20
2023-03-16T21:08:54.780Z,46.13
2023-03-16T21:11:25.910Z,46.17
2023-03-16T21:13:54.486Z,46.20
2023-03-16T21:16:22.689Z,46.30
2023-03-16T21:18:51.859Z,45.90
2023-03-16T21:21:21.564Z,45.87
2023-03-16T21:23:49.440Z,46.00
2023-03-16T21:26:20.120Z,45.63
2023-03-16T21:28:55.540Z,46.03
2023-03-16T21:31:24.031Z,46.20
2023-03-16T21:33:55.342Z,46.03
2023-03-16T21:36:26.107Z,45.70
2023-03-16T21:38:55.184Z,45.97
2023-03-16T21:41:23.442Z,45.93
2023-03-16T21:43:51.696Z,45.83
2023-03-16T21:46:22.281Z,45.70
2023-03-16T21:48:51.780Z,45.80
2023-03-16T21:51:24.776Z,45.93
2023-03-16T21:53:53.414Z,45.73
2023-03-16T21:56:23.724Z,45.63
2023-03-16T21:58:51.992Z,45.97
2023-03-16T22:01:25.197Z,45.73
2023-03-16T22:03:57.220Z,45.97
2023-03-16T22:06:28.759Z,46.00
2023-03-16T22:08:58.045Z,45.67
2023-03-16T22:11:28.189Z,45.80
2023-03-16T22:13:57.374Z,45.50
2023-03-16T22:16:27.841Z,45.77
2023-03-16T22:18:58.000Z,45.70
2023-03-16T22:21:33.560Z,45.90
2023-03-16T22:24:02.584Z,45.73
2023-03-16T22:26:30.974Z,45.80
2023-03-16T22:29:00.711Z,45.80
2023-03-16T22:31:33.376Z,45.90
2023-03-16T22:34:01.899Z,45.73
2023-03-16T22:36:32.379Z,45.83
2023-03-16T22:39:02.866Z,45.37
2023-03-16T22:41:31.339Z,45.60
2023-03-16T22:43:59.958Z,45.50
2023-03-16T22:46:29.256Z,45.60
2023-03-16T22:48:57.991Z,46.00
2023-03-16T22:51:29.578Z,45.90
2023-03-16T22:54:01.869Z,45.30
2023-03-16T22:56:31.224Z,45.90
2023-03-16T22:59:02.074Z,45.43
2023-03-16T23:01:34.458Z,45.63
2023-03-16T23:04:03.230Z,45.47
2023-03-16T23:06:32.468Z,45.53
2023-03-16T23:09:02.195Z,45.60
2023-03-16T23:11:32.507Z,45.50
2023-03-16T23:14:01.002Z,45.50
2023-03-16T23:16:32.029Z,45.50
2023-03-16T23:19:00.377Z,45.50
2023-03-16T23:21:30.340Z,45.40
2023-03-16T23:24:03.887Z,45.17
2023-03-16T23:26:33.662Z,45.33
2023-03-16T23:29:01.635Z,45.30
2023-03-16T23:31:30.762Z,45.00
2023-03-16T23:33:58.884Z,45.33
2023-03-16T23:36:27.200Z,45.47
2023-03-16T23:38:55.280Z,45.10
2023-03-16T23:41:25.072Z,45.13
2023-03-16T23:43:54.882Z,45.23
2023-03-16T23:46:25.162Z,45.37
2023-03-16T23:48:54.871Z,45.20
2023-03-16T23:51:27.040Z,45.00
2023-03-16T23:53:55.182Z,45.27
2023-03-16T23:56:23.643Z,45.17
2023-03-16T23:58:51.687Z,45.03
